• location
  • image
mod_vvisit_countermod_vvisit_countermod_vvisit_countermod_vvisit_countermod_vvisit_countermod_vvisit_counter
mod_vvisit_counterToday365
mod_vvisit_counterYesterday682
mod_vvisit_counterThis week1890
mod_vvisit_counterLast week4292
mod_vvisit_counterThis month16969
mod_vvisit_counterLast month19525
mod_vvisit_counterAll days890818

We have: 41 guests online
Your IP: 54.81.166.196
 , 
Today: Apr 25, 2018
Airport / Company / List of services

List of services

  

Services of Siauliai International Airport:

 

Leading (follow me)

Ground services

Aircraft loading/unloading

Aircraft parking

Aircraft security

Aircraft fuel supply

Passenger baggage service

Business class passenger service

Submission of information to passengers

Serving meals to passengers and crew

Additional services for aircraft crewmembers

Aviation Security

Dining Cafe

First medical aid

Hotel reservations

Transporting crew to/from the city

Taxi booking 

Border procedures

Customs procedures

 

Today

Wednesday, 25 April 2018

Aviation Weather Forecast

[source: ADDS]
METAR
EYSA 251150Z 22008KT 9999 -RA FEW013 BKN015 OVC036 08/06 Q1003 WHT TEMPO SCT013 GRN =
TAF
TAF EYSA 251112Z 2512/2521 VRB05KT 5000 RA BR SCT010 OVC020 TEMPO 2512/2515 SCT005 TEMPO 2515/2518 3000 SHRA BKN005 BKN015CB BECMG 2518/2519 3000 BR BKN005 OVC010 TEMPO 2519/2521 1500 BKN003 =
SR / SS: 03:00 / 17:51 UTC (EYSA 2018-04-25)

Search

Who's Online

We have 41 guests online

tic logo en